sensor_id;sensor_type;location;lat;lon;timestamp;pressure;altitude;pressure_sealevel;temperature;humidity
21395;BME280;10858;42.714;23.180;2023-05-23T00:01:47;94273.25;;;11.41;96.47
21395;BME280;10858;42.714;23.180;2023-05-23T00:04:13;94270.22;;;11.36;97.27
21395;BME280;10858;42.714;23.180;2023-05-23T00:06:42;94271.16;;;11.35;97.35
21395;BME280;10858;42.714;23.180;2023-05-23T00:09:13;94267.97;;;11.32;97.12
21395;BME280;10858;42.714;23.180;2023-05-23T00:11:40;94275.25;;;11.20;97.12
21395;BME280;10858;42.714;23.180;2023-05-23T00:14:13;94271.09;;;11.08;96.63
21395;BME280;10858;42.714;23.180;2023-05-23T00:16:45;94273.16;;;11.04;96.83
21395;BME280;10858;42.714;23.180;2023-05-23T00:19:12;94262.97;;;11.09;96.29
21395;BME280;10858;42.714;23.180;2023-05-23T00:21:46;94265.63;;;11.09;95.79
21395;BME280;10858;42.714;23.180;2023-05-23T00:24:13;94255.28;;;11.06;95.48
21395;BME280;10858;42.714;23.180;2023-05-23T00:26:44;94261.56;;;11.05;95.41
21395;BME280;10858;42.714;23.180;2023-05-23T00:29:10;94273.16;;;11.04;95.49
21395;BME280;10858;42.714;23.180;2023-05-23T00:31:41;94267.84;;;10.95;94.69
21395;BME280;10858;42.714;23.180;2023-05-23T00:34:14;94270.78;;;10.82;94.59
21395;BME280;10858;42.714;23.180;2023-05-23T00:36:42;94266.31;;;10.83;95.99
21395;BME280;10858;42.714;23.180;2023-05-23T00:39:09;94262.97;;;10.90;96.79
21395;BME280;10858;42.714;23.180;2023-05-23T00:41:47;94258.81;;;10.88;96.88
21395;BME280;10858;42.714;23.180;2023-05-23T00:44:14;94261.56;;;10.86;97.13
21395;BME280;10858;42.714;23.180;2023-05-23T00:46:42;94265.75;;;10.89;96.87
21395;BME280;10858;42.714;23.180;2023-05-23T00:49:09;94264.09;;;10.88;96.19
21395;BME280;10858;42.714;23.180;2023-05-23T00:51:35;94270.81;;;10.92;96.09
21395;BME280;10858;42.714;23.180;2023-05-23T00:54:03;94268.16;;;10.92;96.02
21395;BME280;10858;42.714;23.180;2023-05-23T00:56:31;94267.16;;;10.93;95.41
21395;BME280;10858;42.714;23.180;2023-05-23T00:58:59;94274.88;;;10.96;95.82
21395;BME280;10858;42.714;23.180;2023-05-23T01:01:28;94269.25;;;10.99;96.43
21395;BME280;10858;42.714;23.180;2023-05-23T01:03:54;94272.03;;;11.07;96.60
21395;BME280;10858;42.714;23.180;2023-05-23T01:06:21;94277.78;;;11.12;96.01
21395;BME280;10858;42.714;23.180;2023-05-23T01:08:47;94278.34;;;11.06;95.60
21395;BME280;10858;42.714;23.180;2023-05-23T01:12:01;94274.72;;;10.88;95.65
21395;BME280;10858;42.714;23.180;2023-05-23T01:15:09;94272.03;;;10.78;96.63
21395;BME280;10858;42.714;23.180;2023-05-23T01:17:18;94260.88;;;10.75;97.20
21395;BME280;10858;42.714;23.180;2023-05-23T01:19:59;94268.00;;;10.65;97.08
21395;BME280;10858;42.714;23.180;2023-05-23T01:30:18;94260.03;;;10.46;96.81
21395;BME280;10858;42.714;23.180;2023-05-23T01:32:47;94267.13;;;10.45;96.58
21395;BME280;10858;42.714;23.180;2023-05-23T01:35:25;94267.53;;;10.41;96.38
21395;BME280;10858;42.714;23.180;2023-05-23T01:37:54;94254.81;;;10.35;96.33
21395;BME280;10858;42.714;23.180;2023-05-23T01:40:22;94254.66;;;10.26;96.04
21395;BME280;10858;42.714;23.180;2023-05-23T01:42:48;94249.91;;;10.20;96.21
21395;BME280;10858;42.714;23.180;2023-05-23T01:45:15;94246.00;;;10.15;96.19
21395;BME280;10858;42.714;23.180;2023-05-23T01:47:43;94253.25;;;10.13;95.34
21395;BME280;10858;42.714;23.180;2023-05-23T01:52:55;94242.16;;;9.98;96.04
21395;BME280;10858;42.714;23.180;2023-05-23T01:55:22;94235.44;;;9.94;96.19
21395;BME280;10858;42.714;23.180;2023-05-23T01:57:54;94246.59;;;9.88;96.14
21395;BME280;10858;42.714;23.180;2023-05-23T02:00:22;94247.25;;;9.81;96.12
21395;BME280;10858;42.714;23.180;2023-05-23T02:02:48;94249.59;;;9.74;96.48
21395;BME280;10858;42.714;23.180;2023-05-23T02:05:14;94249.53;;;9.85;96.42
21395;BME280;10858;42.714;23.180;2023-05-23T02:07:40;94246.31;;;9.91;95.80
21395;BME280;10858;42.714;23.180;2023-05-23T02:10:08;94245.78;;;9.97;96.47
21395;BME280;10858;42.714;23.180;2023-05-23T02:12:34;94242.75;;;10.02;96.49
21395;BME280;10858;42.714;23.180;2023-05-23T02:15:01;94248.16;;;10.00;96.80
21395;BME280;10858;42.714;23.180;2023-05-23T02:17:27;94250.81;;;10.00;97.08
21395;BME280;10858;42.714;23.180;2023-05-23T02:19:53;94248.88;;;10.02;97.08
21395;BME280;10858;42.714;23.180;2023-05-23T02:22:23;94250.25;;;10.06;96.98
21395;BME280;10858;42.714;23.180;2023-05-23T02:24:52;94242.78;;;10.11;96.72
21395;BME280;10858;42.714;23.180;2023-05-23T02:27:18;94244.84;;;10.08;96.54
21395;BME280;10858;42.714;23.180;2023-05-23T02:29:45;94235.53;;;10.13;96.01
21395;BME280;10858;42.714;23.180;2023-05-23T02:32:11;94243.63;;;10.12;95.76
21395;BME280;10858;42.714;23.180;2023-05-23T02:34:37;94242.59;;;10.03;96.03
21395;BME280;10858;42.714;23.180;2023-05-23T02:37:03;94233.94;;;10.01;95.25
21395;BME280;10858;42.714;23.180;2023-05-23T02:39:30;94235.50;;;10.04;94.89
21395;BME280;10858;42.714;23.180;2023-05-23T02:41:56;94246.31;;;9.91;95.15
21395;BME280;10858;42.714;23.180;2023-05-23T02:44:22;94239.16;;;9.82;94.79
21395;BME280;10858;42.714;23.180;2023-05-23T02:46:57;94241.94;;;9.71;93.91
21395;BME280;10858;42.714;23.180;2023-05-23T02:49:23;94238.59;;;9.69;93.87
21395;BME280;10858;42.714;23.180;2023-05-23T02:51:50;94247.22;;;9.71;94.70
21395;BME280;10858;42.714;23.180;2023-05-23T02:54:17;94254.91;;;9.74;95.38
21395;BME280;10858;42.714;23.180;2023-05-23T02:56:44;94254.97;;;9.84;95.24
21395;BME280;10858;42.714;23.180;2023-05-23T02:59:11;94249.75;;;9.73;94.56
21395;BME280;10858;42.714;23.180;2023-05-23T03:01:38;94250.84;;;9.70;95.36
21395;BME280;10858;42.714;23.180;2023-05-23T03:04:04;94255.34;;;9.79;94.85
21395;BME280;10858;42.714;23.180;2023-05-23T03:06:31;94250.19;;;9.78;94.10
21395;BME280;10858;42.714;23.180;2023-05-23T03:08:59;94254.66;;;9.77;95.08
21395;BME280;10858;42.714;23.180;2023-05-23T03:11:26;94253.81;;;9.86;96.04
21395;BME280;10858;42.714;23.180;2023-05-23T03:13:53;94249.13;;;9.90;96.77
21395;BME280;10858;42.714;23.180;2023-05-23T03:16:19;94241.91;;;10.01;96.58
21395;BME280;10858;42.714;23.180;2023-05-23T03:18:45;94260.41;;;10.32;96.69
21395;BME280;10858;42.714;23.180;2023-05-23T03:21:11;94258.47;;;10.34;96.13
21395;BME280;10858;42.714;23.180;2023-05-23T03:23:38;94255.81;;;10.43;96.88
21395;BME280;10858;42.714;23.180;2023-05-23T03:26:04;94246.22;;;10.61;96.63
21395;BME280;10858;42.714;23.180;2023-05-23T03:28:31;94259.75;;;10.87;96.37
21395;BME280;10858;42.714;23.180;2023-05-23T03:30:58;94260.03;;;11.03;96.52
21395;BME280;10858;42.714;23.180;2023-05-23T03:33:24;94271.63;;;11.21;95.68
21395;BME280;10858;42.714;23.180;2023-05-23T03:35:50;94274.13;;;11.23;96.24
21395;BME280;10858;42.714;23.180;2023-05-23T03:38:17;94271.88;;;11.37;96.39
21395;BME280;10858;42.714;23.180;2023-05-23T03:40:44;94283.03;;;11.41;95.94
21395;BME280;10858;42.714;23.180;2023-05-23T03:43:12;94290.00;;;11.51;96.20
21395;BME280;10858;42.714;23.180;2023-05-23T03:45:42;94268.72;;;11.61;95.95
21395;BME280;10858;42.714;23.180;2023-05-23T03:48:08;94281.59;;;11.75;95.26
21395;BME280;10858;42.714;23.180;2023-05-23T03:50:34;94279.59;;;11.86;95.97
21395;BME280;10858;42.714;23.180;2023-05-23T03:53:00;94276.97;;;12.14;96.78
21395;BME280;10858;42.714;23.180;2023-05-23T03:55:26;94273.22;;;12.34;96.19
21395;BME280;10858;42.714;23.180;2023-05-23T03:57:53;94278.44;;;12.53;95.81
21395;BME280;10858;42.714;23.180;2023-05-23T04:00:19;94272.38;;;12.78;96.45
21395;BME280;10858;42.714;23.180;2023-05-23T04:02:45;94276.00;;;13.04;96.79
21395;BME280;10858;42.714;23.180;2023-05-23T04:05:12;94282.63;;;13.18;95.14
21395;BME280;10858;42.714;23.180;2023-05-23T04:07:39;94274.44;;;13.37;96.46
21395;BME280;10858;42.714;23.180;2023-05-23T04:10:07;94280.06;;;13.51;96.58
21395;BME280;10858;42.714;23.180;2023-05-23T04:12:34;94274.38;;;13.46;96.51
21395;BME280;10858;42.714;23.180;2023-05-23T04:15:01;94279.56;;;13.30;97.32
21395;BME280;10858;42.714;23.180;2023-05-23T04:17:27;94288.44;;;13.39;97.03
21395;BME280;10858;42.714;23.180;2023-05-23T04:19:56;94283.66;;;13.42;95.84
21395;BME280;10858;42.714;23.180;2023-05-23T04:22:22;94288.75;;;13.36;94.87
21395;BME280;10858;42.714;23.180;2023-05-23T04:24:48;94267.75;;;13.50;96.38
21395;BME280;10858;42.714;23.180;2023-05-23T04:27:14;94272.13;;;14.11;97.95
21395;BME280;10858;42.714;23.180;2023-05-23T04:29:40;94269.16;;;14.56;97.02
21395;BME280;10858;42.714;23.180;2023-05-23T04:32:06;94272.34;;;14.67;95.87
21395;BME280;10858;42.714;23.180;2023-05-23T04:34:33;94278.22;;;14.71;93.79
21395;BME280;10858;42.714;23.180;2023-05-23T04:37:00;94277.69;;;14.67;93.23
21395;BME280;10858;42.714;23.180;2023-05-23T04:39:29;94271.22;;;14.28;93.83
21395;BME280;10858;42.714;23.180;2023-05-23T04:41:56;94276.72;;;14.01;93.52
21395;BME280;10858;42.714;23.180;2023-05-23T04:44:23;94279.44;;;14.17;95.50
21395;BME280;10858;42.714;23.180;2023-05-23T04:46:49;94275.78;;;14.43;94.03
21395;BME280;10858;42.714;23.180;2023-05-23T04:49:16;94283.31;;;14.48;93.25
21395;BME280;10858;42.714;23.180;2023-05-23T04:51:42;94277.66;;;14.25;93.62
21395;BME280;10858;42.714;23.180;2023-05-23T04:54:08;94274.41;;;14.31;93.99
21395;BME280;10858;42.714;23.180;2023-05-23T04:56:35;94284.03;;;14.66;94.37
21395;BME280;10858;42.714;23.180;2023-05-23T04:59:01;94285.28;;;14.88;92.07
21395;BME280;10858;42.714;23.180;2023-05-23T05:01:27;94289.03;;;14.61;89.80
21395;BME280;10858;42.714;23.180;2023-05-23T05:03:53;94295.97;;;14.46;91.19
21395;BME280;10858;42.714;23.180;2023-05-23T05:06:19;94294.00;;;14.22;90.25
21395;BME280;10858;42.714;23.180;2023-05-23T05:08:46;94289.72;;;14.04;91.68
21395;BME280;10858;42.714;23.180;2023-05-23T05:11:12;94299.38;;;13.97;92.85
21395;BME280;10858;42.714;23.180;2023-05-23T05:13:39;94302.09;;;14.72;92.69
21395;BME280;10858;42.714;23.180;2023-05-23T05:16:05;94297.53;;;14.57;90.57
21395;BME280;10858;42.714;23.180;2023-05-23T05:18:31;94303.31;;;14.44;90.35
21395;BME280;10858;42.714;23.180;2023-05-23T05:20:58;94301.50;;;14.94;90.06
21395;BME280;10858;42.714;23.180;2023-05-23T05:23:25;94304.19;;;15.10;88.79
21395;BME280;10858;42.714;23.180;2023-05-23T05:25:55;94296.06;;;15.52;88.54
21395;BME280;10858;42.714;23.180;2023-05-23T05:28:22;94289.78;;;16.24;84.84
21395;BME280;10858;42.714;23.180;2023-05-23T05:30:48;94294.75;;;17.21;82.15
21395;BME280;10858;42.714;23.180;2023-05-23T05:33:19;94297.97;;;17.69;78.15
21395;BME280;10858;42.714;23.180;2023-05-23T05:35:48;94293.63;;;17.15;78.68
21395;BME280;10858;42.714;23.180;2023-05-23T05:38:16;94295.81;;;17.65;77.14
21395;BME280;10858;42.714;23.180;2023-05-23T05:40:42;94300.97;;;17.89;76.20
21395;BME280;10858;42.714;23.180;2023-05-23T05:43:09;94303.66;;;17.89;76.69
21395;BME280;10858;42.714;23.180;2023-05-23T05:45:35;94305.91;;;18.52;73.46
21395;BME280;10858;42.714;23.180;2023-05-23T05:48:02;94303.31;;;18.58;73.16
21395;BME280;10858;42.714;23.180;2023-05-23T05:50:28;94315.97;;;17.83;73.92
21395;BME280;10858;42.714;23.180;2023-05-23T05:52:54;94311.50;;;17.23;75.56
21395;BME280;10858;42.714;23.180;2023-05-23T05:55:20;94316.59;;;17.10;78.69
21395;BME280;10858;42.714;23.180;2023-05-23T05:57:47;94318.53;;;16.38;80.92
21395;BME280;10858;42.714;23.180;2023-05-23T06:00:14;94327.00;;;15.55;83.29
21395;BME280;10858;42.714;23.180;2023-05-23T06:02:43;94316.53;;;15.11;85.88
21395;BME280;10858;42.714;23.180;2023-05-23T06:05:13;94314.22;;;15.08;87.10
21395;BME280;10858;42.714;23.180;2023-05-23T06:07:50;94331.00;;;15.43;86.00
21395;BME280;10858;42.714;23.180;2023-05-23T06:10:16;94325.50;;;15.84;85.74
21395;BME280;10858;42.714;23.180;2023-05-23T06:12:42;94322.09;;;16.23;82.83
21395;BME280;10858;42.714;23.180;2023-05-23T06:15:10;94321.13;;;15.83;83.20
21395;BME280;10858;42.714;23.180;2023-05-23T06:17:38;94317.50;;;16.63;84.16
21395;BME280;10858;42.714;23.180;2023-05-23T06:20:05;94320.63;;;17.67;78.50
21395;BME280;10858;42.714;23.180;2023-05-23T06:22:31;94318.00;;;18.33;76.34
21395;BME280;10858;42.714;23.180;2023-05-23T06:24:57;94320.66;;;19.71;73.02
21395;BME280;10858;42.714;23.180;2023-05-23T06:27:24;94316.91;;;19.72;69.67
21395;BME280;10858;42.714;23.180;2023-05-23T06:29:50;94320.47;;;19.22;70.79
21395;BME280;10858;42.714;23.180;2023-05-23T06:32:16;94322.88;;;19.32;72.03
21395;BME280;10858;42.714;23.180;2023-05-23T06:34:43;94322.78;;;19.40;68.71
21395;BME280;10858;42.714;23.180;2023-05-23T06:37:17;94320.53;;;18.93;71.64
21395;BME280;10858;42.714;23.180;2023-05-23T06:39:44;94319.09;;;18.24;72.40
21395;BME280;10858;42.714;23.180;2023-05-23T06:42:10;94314.91;;;18.07;74.37
21395;BME280;10858;42.714;23.180;2023-05-23T06:44:36;94316.88;;;18.13;74.52
21395;BME280;10858;42.714;23.180;2023-05-23T06:47:02;94313.63;;;19.34;73.15
21395;BME280;10858;42.714;23.180;2023-05-23T06:49:29;94319.16;;;20.60;64.85
21395;BME280;10858;42.714;23.180;2023-05-23T06:51:55;94312.81;;;20.74;66.21
21395;BME280;10858;42.714;23.180;2023-05-23T06:54:21;94317.69;;;20.57;63.47
21395;BME280;10858;42.714;23.180;2023-05-23T06:56:47;94307.91;;;21.18;65.38
21395;BME280;10858;42.714;23.180;2023-05-23T06:59:13;94315.81;;;21.99;58.17
21395;BME280;10858;42.714;23.180;2023-05-23T07:01:40;94311.69;;;22.43;59.19
21395;BME280;10858;42.714;23.180;2023-05-23T07:04:06;94302.16;;;24.19;53.08
21395;BME280;10858;42.714;23.180;2023-05-23T07:06:33;94295.28;;;24.16;52.31
21395;BME280;10858;42.714;23.180;2023-05-23T07:09:00;94301.72;;;24.46;51.21
21395;BME280;10858;42.714;23.180;2023-05-23T07:11:26;94289.88;;;26.34;48.06
21395;BME280;10858;42.714;23.180;2023-05-23T07:13:53;94285.69;;;26.08;49.92
21395;BME280;10858;42.714;23.180;2023-05-23T07:16:19;94286.94;;;26.05;49.78
21395;BME280;10858;42.714;23.180;2023-05-23T07:18:45;94277.03;;;26.52;46.18
21395;BME280;10858;42.714;23.180;2023-05-23T07:21:11;94279.16;;;26.39;49.90
21395;BME280;10858;42.714;23.180;2023-05-23T07:23:39;94284.09;;;26.30;48.51
21395;BME280;10858;42.714;23.180;2023-05-23T07:26:05;94287.97;;;25.93;48.28
21395;BME280;10858;42.714;23.180;2023-05-23T07:28:34;94278.53;;;26.25;50.30
21395;BME280;10858;42.714;23.180;2023-05-23T07:31:01;94277.13;;;26.34;45.95
21395;BME280;10858;42.714;23.180;2023-05-23T07:33:27;94273.03;;;25.84;46.74
21395;BME280;10858;42.714;23.180;2023-05-23T07:35:56;94272.94;;;25.61;48.10
21395;BME280;10858;42.714;23.180;2023-05-23T07:38:24;94281.19;;;26.55;45.12
21395;BME280;10858;42.714;23.180;2023-05-23T07:40:51;94270.41;;;27.41;42.46
21395;BME280;10858;42.714;23.180;2023-05-23T07:43:20;94264.84;;;28.98;40.41
21395;BME280;10858;42.714;23.180;2023-05-23T07:45:54;94274.88;;;28.93;39.83
21395;BME280;10858;42.714;23.180;2023-05-23T07:48:20;94278.19;;;29.71;39.26
21395;BME280;10858;42.714;23.180;2023-05-23T07:50:46;94274.97;;;28.03;41.71
21395;BME280;10858;42.714;23.180;2023-05-23T07:53:13;94269.31;;;27.42;45.76
21395;BME280;10858;42.714;23.180;2023-05-23T07:55:40;94266.56;;;28.21;42.87
21395;BME280;10858;42.714;23.180;2023-05-23T07:58:06;94270.81;;;27.61;42.53
21395;BME280;10858;42.714;23.180;2023-05-23T08:00:32;94266.53;;;27.65;47.40
21395;BME280;10858;42.714;23.180;2023-05-23T08:02:59;94267.91;;;28.35;43.06
21395;BME280;10858;42.714;23.180;2023-05-23T08:05:25;94268.97;;;27.27;43.20
21395;BME280;10858;42.714;23.180;2023-05-23T08:07:51;94264.75;;;26.84;47.52
21395;BME280;10858;42.714;23.180;2023-05-23T08:10:19;94261.38;;;26.25;45.77
21395;BME280;10858;42.714;23.180;2023-05-23T08:12:45;94265.22;;;27.39;43.22
21395;BME280;10858;42.714;23.180;2023-05-23T08:15:12;94267.88;;;27.91;42.74
21395;BME280;10858;42.714;23.180;2023-05-23T08:17:39;94266.50;;;27.37;43.80
21395;BME280;10858;42.714;23.180;2023-05-23T08:20:05;94264.38;;;27.04;44.02
21395;BME280;10858;42.714;23.180;2023-05-23T08:22:33;94257.06;;;28.40;44.09
21395;BME280;10858;42.714;23.180;2023-05-23T08:24:59;94258.84;;;28.18;43.74
21395;BME280;10858;42.714;23.180;2023-05-23T08:27:27;94259.31;;;28.60;41.67
21395;BME280;10858;42.714;23.180;2023-05-23T08:29:55;94257.34;;;27.83;43.73
21395;BME280;10858;42.714;23.180;2023-05-23T08:32:21;94260.16;;;27.99;44.07
21395;BME280;10858;42.714;23.180;2023-05-23T08:34:47;94258.66;;;27.80;42.61
21395;BME280;10858;42.714;23.180;2023-05-23T08:37:14;94254.28;;;27.28;46.74
21395;BME280;10858;42.714;23.180;2023-05-23T08:39:40;94257.56;;;27.53;47.52
21395;BME280;10858;42.714;23.180;2023-05-23T08:42:07;94257.25;;;27.77;45.51
21395;BME280;10858;42.714;23.180;2023-05-23T08:44:33;94256.31;;;27.21;43.84
21395;BME280;10858;42.714;23.180;2023-05-23T08:47:03;94259.91;;;26.98;45.15
21395;BME280;10858;42.714;23.180;2023-05-23T08:49:30;94259.50;;;27.41;44.78
21395;BME280;10858;42.714;23.180;2023-05-23T08:52:01;94241.50;;;27.40;42.84
21395;BME280;10858;42.714;23.180;2023-05-23T08:54:31;94249.50;;;27.58;41.86
21395;BME280;10858;42.714;23.180;2023-05-23T08:56:58;94238.44;;;27.64;43.31
21395;BME280;10858;42.714;23.180;2023-05-23T08:59:25;94236.91;;;27.68;44.49
21395;BME280;10858;42.714;23.180;2023-05-23T09:01:54;94245.50;;;27.49;42.37
21395;BME280;10858;42.714;23.180;2023-05-23T09:04:21;94227.19;;;27.10;46.06
21395;BME280;10858;42.714;23.180;2023-05-23T09:06:48;94226.47;;;27.14;45.78
21395;BME280;10858;42.714;23.180;2023-05-23T09:09:14;94233.38;;;26.70;45.17
21395;BME280;10858;42.714;23.180;2023-05-23T09:11:41;94234.69;;;26.91;43.33
21395;BME280;10858;42.714;23.180;2023-05-23T09:14:10;94234.56;;;26.86;45.95
21395;BME280;10858;42.714;23.180;2023-05-23T09:16:39;94227.78;;;27.12;45.80
21395;BME280;10858;42.714;23.180;2023-05-23T09:19:13;94238.06;;;27.33;42.89
21395;BME280;10858;42.714;23.180;2023-05-23T09:21:43;94231.41;;;27.40;39.31
21395;BME280;10858;42.714;23.180;2023-05-23T09:24:10;94224.09;;;27.29;42.29
21395;BME280;10858;42.714;23.180;2023-05-23T09:26:37;94215.16;;;26.94;42.80
21395;BME280;10858;42.714;23.180;2023-05-23T09:29:06;94222.53;;;27.73;39.23
21395;BME280;10858;42.714;23.180;2023-05-23T09:31:33;94222.88;;;28.05;37.38
21395;BME280;10858;42.714;23.180;2023-05-23T09:33:59;94221.97;;;27.20;39.92
21395;BME280;10858;42.714;23.180;2023-05-23T09:36:28;94220.59;;;27.57;40.82
21395;BME280;10858;42.714;23.180;2023-05-23T09:38:55;94215.13;;;28.13;39.32
21395;BME280;10858;42.714;23.180;2023-05-23T09:41:21;94212.94;;;27.99;36.64
21395;BME280;10858;42.714;23.180;2023-05-23T09:43:52;94214.59;;;27.43;38.11
21395;BME280;10858;42.714;23.180;2023-05-23T09:46:20;94219.06;;;26.63;40.71
21395;BME280;10858;42.714;23.180;2023-05-23T09:48:50;94222.28;;;26.72;39.12
21395;BME280;10858;42.714;23.180;2023-05-23T09:51:22;94221.81;;;27.77;39.05
21395;BME280;10858;42.714;23.180;2023-05-23T09:53:49;94215.84;;;27.81;36.63
21395;BME280;10858;42.714;23.180;2023-05-23T09:56:16;94209.09;;;27.83;40.43
21395;BME280;10858;42.714;23.180;2023-05-23T09:58:49;94205.41;;;27.61;37.43
21395;BME280;10858;42.714;23.180;2023-05-23T10:01:16;94202.41;;;27.91;36.74
21395;BME280;10858;42.714;23.180;2023-05-23T10:03:52;94200.06;;;28.11;35.96
21395;BME280;10858;42.714;23.180;2023-05-23T10:06:24;94198.28;;;28.33;35.78
21395;BME280;10858;42.714;23.180;2023-05-23T10:09:06;94204.69;;;28.10;35.28
21395;BME280;10858;42.714;23.180;2023-05-23T10:14:06;94206.97;;;26.13;41.15
21395;BME280;10858;42.714;23.180;2023-05-23T10:19:26;94208.38;;;27.59;35.80
21395;BME280;10858;42.714;23.180;2023-05-23T10:22:02;94199.25;;;28.43;37.80
21395;BME280;10858;42.714;23.180;2023-05-23T10:24:29;94196.59;;;28.48;32.01
21395;BME280;10858;42.714;23.180;2023-05-23T10:26:57;94202.09;;;27.59;35.85
21395;BME280;10858;42.714;23.180;2023-05-23T10:29:24;94194.22;;;26.48;38.35
21395;BME280;10858;42.714;23.180;2023-05-23T10:31:52;94178.78;;;25.55;38.67
21395;BME280;10858;42.714;23.180;2023-05-23T10:37:44;94180.00;;;24.75;39.55
21395;BME280;10858;42.714;23.180;2023-05-23T10:40:26;94177.56;;;24.67;39.75
21395;BME280;10858;42.714;23.180;2023-05-23T10:43:09;94175.97;;;23.92;41.18
21395;BME280;10858;42.714;23.180;2023-05-23T10:45:41;94165.69;;;24.00;40.70
21395;BME280;10858;42.714;23.180;2023-05-23T10:51:10;94172.53;;;25.36;39.22
21395;BME280;10858;42.714;23.180;2023-05-23T10:53:42;94170.56;;;24.95;39.94
21395;BME280;10858;42.714;23.180;2023-05-23T10:56:16;94160.72;;;25.30;42.54
21395;BME280;10858;42.714;23.180;2023-05-23T10:58:44;94165.59;;;26.34;36.87
21395;BME280;10858;42.714;23.180;2023-05-23T11:01:14;94165.00;;;27.58;36.10
21395;BME280;10858;42.714;23.180;2023-05-23T11:03:48;94156.38;;;27.94;35.09
21395;BME280;10858;42.714;23.180;2023-05-23T11:06:39;94165.09;;;27.63;32.73
21395;BME280;10858;42.714;23.180;2023-05-23T11:09:17;94157.09;;;27.17;34.82
21395;BME280;10858;42.714;23.180;2023-05-23T11:11:54;94151.22;;;27.36;37.44
21395;BME280;10858;42.714;23.180;2023-05-23T11:19:38;94150.63;;;26.02;39.37
21395;BME280;10858;42.714;23.180;2023-05-23T11:22:08;94149.84;;;26.48;36.04
21395;BME280;10858;42.714;23.180;2023-05-23T11:24:56;94144.47;;;26.99;36.29
21395;BME280;10858;42.714;23.180;2023-05-23T11:27:34;94146.22;;;27.05;33.28
21395;BME280;10858;42.714;23.180;2023-05-23T11:30:09;94144.91;;;27.08;33.99
21395;BME280;10858;42.714;23.180;2023-05-23T11:32:38;94141.41;;;26.96;37.65
21395;BME280;10858;42.714;23.180;2023-05-23T11:35:06;94142.75;;;27.21;35.27
21395;BME280;10858;42.714;23.180;2023-05-23T11:37:37;94135.34;;;27.05;36.72
21395;BME280;10858;42.714;23.180;2023-05-23T11:40:29;94127.50;;;25.47;38.83
21395;BME280;10858;42.714;23.180;2023-05-23T11:42:59;94124.91;;;26.16;36.61
21395;BME280;10858;42.714;23.180;2023-05-23T11:45:26;94127.38;;;27.15;38.24
21395;BME280;10858;42.714;23.180;2023-05-23T11:47:53;94116.16;;;27.40;35.03
21395;BME280;10858;42.714;23.180;2023-05-23T11:50:19;94110.25;;;27.03;37.18
21395;BME280;10858;42.714;23.180;2023-05-23T11:52:46;94124.78;;;27.09;35.19
21395;BME280;10858;42.714;23.180;2023-05-23T11:55:20;94123.41;;;26.94;35.41
21395;BME280;10858;42.714;23.180;2023-05-23T11:57:47;94122.72;;;27.16;32.73
21395;BME280;10858;42.714;23.180;2023-05-23T12:00:14;94112.28;;;27.24;34.85
21395;BME280;10858;42.714;23.180;2023-05-23T12:02:42;94104.19;;;27.41;35.85
21395;BME280;10858;42.714;23.180;2023-05-23T12:05:10;94107.16;;;27.28;37.45
21395;BME280;10858;42.714;23.180;2023-05-23T12:07:47;94112.84;;;25.48;38.41
21395;BME280;10858;42.714;23.180;2023-05-23T12:10:15;94114.63;;;24.94;39.92
21395;BME280;10858;42.714;23.180;2023-05-23T12:12:42;94108.19;;;25.07;38.72
21395;BME280;10858;42.714;23.180;2023-05-23T12:15:09;94100.75;;;25.85;38.03
21395;BME280;10858;42.714;23.180;2023-05-23T12:17:44;94091.72;;;27.17;35.33
21395;BME280;10858;42.714;23.180;2023-05-23T12:20:14;94100.31;;;27.25;35.36
21395;BME280;10858;42.714;23.180;2023-05-23T12:22:41;94097.63;;;26.85;34.89
21395;BME280;10858;42.714;23.180;2023-05-23T12:25:08;94094.63;;;26.99;36.62
21395;BME280;10858;42.714;23.180;2023-05-23T12:27:35;94094.97;;;27.58;36.44
21395;BME280;10858;42.714;23.180;2023-05-23T12:32:32;94087.28;;;27.55;34.32
21395;BME280;10858;42.714;23.180;2023-05-23T12:34:58;94082.72;;;27.44;34.92
21395;BME280;10858;42.714;23.180;2023-05-23T12:37:25;94083.06;;;26.91;30.93
21395;BME280;10858;42.714;23.180;2023-05-23T12:39:52;94089.25;;;27.60;31.61
21395;BME280;10858;42.714;23.180;2023-05-23T12:42:18;94079.97;;;28.61;32.34
21395;BME280;10858;42.714;23.180;2023-05-23T12:44:44;94073.63;;;28.77;31.73
21395;BME280;10858;42.714;23.180;2023-05-23T12:47:12;94065.34;;;27.95;34.98
21395;BME280;10858;42.714;23.180;2023-05-23T12:49:38;94068.38;;;27.21;34.34
21395;BME280;10858;42.714;23.180;2023-05-23T12:52:04;94061.94;;;27.27;35.56
21395;BME280;10858;42.714;23.180;2023-05-23T12:54:31;94067.59;;;27.37;34.43
21395;BME280;10858;42.714;23.180;2023-05-23T12:56:57;94063.56;;;27.28;34.78
21395;BME280;10858;42.714;23.180;2023-05-23T12:59:23;94070.38;;;27.14;35.16
21395;BME280;10858;42.714;23.180;2023-05-23T13:01:49;94061.34;;;27.25;34.29
21395;BME280;10858;42.714;23.180;2023-05-23T13:04:16;94059.75;;;27.12;38.04
21395;BME280;10858;42.714;23.180;2023-05-23T13:06:42;94058.53;;;27.20;35.11
21395;BME280;10858;42.714;23.180;2023-05-23T13:09:08;94063.13;;;26.51;38.00
21395;BME280;10858;42.714;23.180;2023-05-23T13:11:35;94054.88;;;26.00;37.09
21395;BME280;10858;42.714;23.180;2023-05-23T13:14:02;94052.41;;;26.33;36.12
21395;BME280;10858;42.714;23.180;2023-05-23T13:16:29;94044.91;;;27.20;35.00
21395;BME280;10858;42.714;23.180;2023-05-23T13:18:55;94041.19;;;27.26;32.47
21395;BME280;10858;42.714;23.180;2023-05-23T13:21:21;94049.31;;;27.99;30.12
21395;BME280;10858;42.714;23.180;2023-05-23T13:23:48;94058.03;;;27.51;33.29
21395;BME280;10858;42.714;23.180;2023-05-23T13:26:14;94061.81;;;26.54;34.35